Time;durP1;ratioP1;P1;durP2;ratioP2;P2;SDS_P1;SDS_P2;PMS_P1;PMS_P2;Temp;Humidity;BMP_temperature;BMP_pressure;BME280_temperature;BME280_humidity;BME280_pressure;Samples;Min_cycle;Max_cycle;Signal;HPM_P1;HPM_P2
2023/08/28 00:01:38;;;;;;;63.07;60.03;;;;;;;14.05;100.00;100663.09;5042850;28;20431;-43
2023/08/28 00:04:06;;;;;;;63.37;60.67;;;;;;;14.06;100.00;100671.97;5041764;28;20493;-43
2023/08/28 00:06:34;;;;;;;67.87;64.87;;;;;;;14.08;100.00;100661.84;5042580;28;20432;-41
2023/08/28 00:09:04;;;;;;;64.80;62.00;;;;;;;14.10;100.00;100665.09;5050634;28;20863;-43
2023/08/28 00:11:31;;;;;;;67.23;64.20;;;;;;;14.14;100.00;100671.69;5042196;28;20447;-42
2023/08/28 00:13:59;;;;;;;67.30;64.20;;;;;;;14.16;100.00;100661.53;5041649;28;20468;-41
2023/08/28 00:16:26;;;;;;;71.60;68.37;;;;;;;14.20;100.00;100665.44;5051023;28;20498;-43
2023/08/28 00:18:54;;;;;;;70.53;67.23;;;;;;;14.22;100.00;100674.06;5050562;28;20439;-42
2023/08/28 00:21:22;;;;;;;68.63;65.50;;;;;;;14.24;100.00;100675.50;5050617;28;20445;-44
2023/08/28 00:23:49;;;;;;;73.00;69.53;;;;;;;14.27;100.00;100679.59;5041535;28;21092;-44
2023/08/28 00:26:18;;;;;;;72.17;68.97;;;;;;;14.28;100.00;100671.31;5042212;28;20442;-42
2023/08/28 00:28:46;;;;;;;71.07;67.73;;;;;;;14.30;100.00;100673.78;5042051;28;20436;-44
2023/08/28 00:31:13;;;;;;;73.30;69.80;;;;;;;14.29;100.00;100681.03;5042670;28;20821;-41
2023/08/28 00:33:41;;;;;;;69.33;66.37;;;;;;;14.32;100.00;100675.25;5049810;28;21028;-43
2023/08/28 00:36:09;;;;;;;71.27;67.77;;;;;;;14.33;100.00;100668.03;5041908;28;20511;-42
2023/08/28 00:38:36;;;;;;;76.70;73.27;;;;;;;14.33;100.00;100674.22;5049877;28;20514;-42
2023/08/28 00:41:04;;;;;;;72.47;68.97;;;;;;;14.32;100.00;100667.19;5049800;28;20431;-42
2023/08/28 00:43:33;;;;;;;71.70;68.40;;;;;;;14.30;100.00;100658.53;5049042;28;20486;-46
2023/08/28 00:46:02;;;;;;;72.47;68.70;;;;;;;14.29;100.00;100661.41;5050523;28;20438;-43
2023/08/28 00:48:30;;;;;;;72.20;68.80;;;;;;;14.25;100.00;100653.00;5044341;28;20945;-43
2023/08/28 00:50:59;;;;;;;68.20;65.10;;;;;;;14.25;100.00;100653.00;5039169;28;20432;-44
2023/08/28 00:53:27;;;;;;;68.27;65.30;;;;;;;14.25;100.00;100649.47;5048966;28;20683;-41
2023/08/28 00:55:55;;;;;;;71.20;67.90;;;;;;;14.23;100.00;100662.31;5049425;28;20498;-42
2023/08/28 00:58:22;;;;;;;70.73;67.63;;;;;;;14.21;100.00;100653.66;5049905;28;20432;-42
2023/08/28 01:00:52;;;;;;;71.83;68.37;;;;;;;14.19;100.00;100651.19;5050257;28;20432;-42
2023/08/28 01:03:20;;;;;;;69.43;66.20;;;;;;;14.18;100.00;100649.56;5049165;28;20487;-41
2023/08/28 01:05:58;;;;;;;68.13;65.07;;;;;;;14.15;100.00;100644.66;5049626;28;20459;-41
2023/08/28 01:08:34;;;;;;;71.07;68.03;;;;;;;14.13;100.00;100657.44;5042611;28;20432;-42
2023/08/28 01:11:11;;;;;;;68.93;66.00;;;;;;;14.11;100.00;100656.84;5049521;28;20519;-41
2023/08/28 01:13:46;;;;;;;68.63;65.43;;;;;;;14.08;100.00;100651.94;5049004;28;20545;-43
2023/08/28 01:16:17;;;;;;;69.57;66.53;;;;;;;14.09;100.00;100656.25;5049948;28;20540;-43
2023/08/28 01:18:46;;;;;;;69.57;66.50;;;;;;;14.05;100.00;100652.38;5049384;28;20432;-42
2023/08/28 01:21:14;;;;;;;71.27;68.17;;;;;;;14.07;100.00;100652.13;5046470;28;20460;-47
2023/08/28 01:23:50;;;;;;;71.73;68.53;;;;;;;14.06;100.00;100651.34;5048912;28;20539;-41
2023/08/28 01:26:19;;;;;;;68.63;65.43;;;;;;;14.05;100.00;100670.31;5049321;28;20431;-42
2023/08/28 01:28:46;;;;;;;70.67;67.23;;;;;;;14.03;100.00;100669.72;5049301;28;20518;-46
2023/08/28 01:31:14;;;;;;;68.93;65.93;;;;;;;14.03;100.00;100673.25;5049657;28;20427;-45
2023/08/28 01:33:42;;;;;;;69.93;66.67;;;;;;;14.04;100.00;100668.66;5048737;28;20463;-44
2023/08/28 01:36:15;;;;;;;67.07;64.00;;;;;;;14.01;100.00;100661.91;5049198;28;20439;-42
2023/08/28 01:38:50;;;;;;;66.67;63.87;;;;;;;14.01;100.00;100664.56;5049172;28;20451;-43
2023/08/28 01:41:21;;;;;;;69.87;66.80;;;;;;;13.97;100.00;100659.88;5049146;28;20438;-42
2023/08/28 01:43:53;;;;;;;75.10;71.90;;;;;;;13.95;100.00;100661.97;5048434;28;20459;-43
2023/08/28 01:46:21;;;;;;;71.90;68.70;;;;;;;13.90;100.00;100665.31;5049992;28;20513;-43
2023/08/28 01:48:52;;;;;;;75.43;72.23;;;;;;;13.87;100.00;100663.06;5049376;28;20432;-43
2023/08/28 01:51:20;;;;;;;75.70;72.30;;;;;;;13.85;100.00;100665.97;5041259;28;20442;-42
2023/08/28 01:53:47;;;;;;;76.17;72.57;;;;;;;13.80;100.00;100663.13;5048465;28;20458;-42
2023/08/28 01:56:21;;;;;;;80.03;76.63;;;;;;;13.78;100.00;100659.00;5040901;28;20431;-43
2023/08/28 01:58:51;;;;;;;84.53;80.83;;;;;;;13.76;100.00;100659.25;5049228;28;20442;-41
2023/08/28 02:01:18;;;;;;;78.70;75.20;;;;;;;13.75;100.00;100654.09;5041430;28;20426;-41
2023/08/28 02:03:47;;;;;;;77.00;73.73;;;;;;;13.74;100.00;100658.63;5041054;28;20856;-41
2023/08/28 02:06:15;;;;;;;77.80;74.30;;;;;;;13.75;100.00;100662.97;5048253;28;20493;-43
2023/08/28 02:08:42;;;;;;;77.63;74.23;;;;;;;13.75;100.00;100662.97;5044131;28;20483;-41
2023/08/28 02:11:10;;;;;;;78.10;74.50;;;;;;;13.77;100.00;100660.88;5043252;28;20440;-41
2023/08/28 02:13:39;;;;;;;80.17;76.47;;;;;;;13.79;100.00;100658.00;5043891;28;20463;-42
2023/08/28 02:16:07;;;;;;;76.33;73.13;;;;;;;13.79;100.00;100653.44;5045056;28;20918;-44
2023/08/28 02:18:35;;;;;;;73.27;70.17;;;;;;;13.83;100.00;100653.81;5052791;28;20513;-43
2023/08/28 02:21:03;;;;;;;75.10;71.80;;;;;;;13.88;100.00;100658.53;5044163;28;20953;-42
2023/08/28 02:23:32;;;;;;;79.80;76.20;;;;;;;13.90;100.00;100648.41;5051912;28;20826;-42
2023/08/28 02:26:00;;;;;;;80.67;77.07;;;;;;;13.86;100.00;100650.69;5052174;28;20518;-41
2023/08/28 02:28:27;;;;;;;77.77;74.63;;;;;;;13.90;100.00;100653.75;5045454;28;20513;-42
2023/08/28 02:30:58;;;;;;;78.30;74.30;;;;;;;13.87;100.00;100657.69;5053002;28;21033;-41
2023/08/28 02:33:25;;;;;;;81.57;77.97;;;;;;;13.86;100.00;100659.56;5043943;28;20462;-44
2023/08/28 02:35:53;;;;;;;75.90;72.70;;;;;;;13.82;100.00;100658.38;5052353;28;20485;-45
2023/08/28 02:38:21;;;;;;;79.40;75.73;;;;;;;13.81;100.00;100658.59;5052421;28;20474;-42
2023/08/28 02:40:48;;;;;;;80.10;76.93;;;;;;;13.78;100.00;100657.16;5052423;28;20514;-42
2023/08/28 02:43:16;;;;;;;82.67;79.23;;;;;;;13.77;100.00;100658.19;5040572;28;20559;-42
2023/08/28 02:45:44;;;;;;;87.50;83.60;;;;;;;13.75;100.00;100662.97;5040828;28;20919;-44
2023/08/28 02:48:13;;;;;;;81.00;77.63;;;;;;;13.74;100.00;100658.63;5051196;28;20431;-41
2023/08/28 02:50:41;;;;;;;79.20;75.93;;;;;;;13.74;100.00;100660.47;5045771;28;20490;-43
2023/08/28 02:53:08;;;;;;;84.20;80.83;;;;;;;13.70;100.00;100659.31;5049673;28;20538;-43
2023/08/28 02:55:39;;;;;;;89.63;85.80;;;;;;;13.69;100.00;100663.00;5051927;28;20442;-43
2023/08/28 02:58:07;;;;;;;86.83;82.80;;;;;;;13.71;100.00;100666.28;5050532;28;20842;-41
2023/08/28 03:00:37;;;;;;;86.33;82.30;;;;;;;13.70;100.00;100665.47;5045806;28;20438;-42
2023/08/28 03:03:05;;;;;;;89.20;85.47;;;;;;;13.75;100.00;100657.59;5055873;28;20459;-44
2023/08/28 03:05:35;;;;;;;88.43;84.60;;;;;;;13.81;100.00;100655.91;5059428;28;20463;-41
2023/08/28 03:08:03;;;;;;;81.83;78.50;;;;;;;13.86;100.00;100658.72;5051114;28;20437;-40
2023/08/28 03:10:34;;;;;;;82.33;78.93;;;;;;;13.90;100.00;100659.94;5060157;28;20496;-41
2023/08/28 03:13:02;;;;;;;88.00;84.17;;;;;;;13.93;100.00;100664.03;5050618;28;20538;-43
2023/08/28 03:15:32;;;;;;;79.60;76.40;;;;;;;13.95;100.00;100651.25;5059388;28;20473;-43
2023/08/28 03:17:59;;;;;;;85.00;81.40;;;;;;;13.95;100.00;100653.94;5060455;28;20517;-41
2023/08/28 03:20:27;;;;;;;84.53;81.23;;;;;;;13.93;100.00;100659.50;5057651;28;20431;-43
2023/08/28 03:22:56;;;;;;;92.17;88.50;;;;;;;13.91;100.00;100666.13;5053934;28;20571;-41
2023/08/28 03:25:24;;;;;;;89.60;85.83;;;;;;;13.85;100.00;100668.66;5048523;28;21043;-40
2023/08/28 03:27:52;;;;;;;91.90;88.30;;;;;;;13.79;100.00;100674.91;5055277;28;20481;-41
2023/08/28 03:30:20;;;;;;;91.90;88.30;;;;;;;13.75;100.00;100676.34;5059440;28;20447;-43
2023/08/28 03:32:47;;;;;;;91.10;87.50;;;;;;;13.72;100.00;100675.97;5055560;28;20493;-41
2023/08/28 03:35:15;;;;;;;92.40;88.70;;;;;;;13.69;100.00;100673.72;5053063;28;20439;-41
2023/08/28 03:37:43;;;;;;;93.10;89.40;;;;;;;13.63;100.00;100677.28;5052651;28;20883;-42
2023/08/28 03:40:13;;;;;;;93.73;89.30;;;;;;;13.56;100.00;100671.16;5044130;28;20477;-47
2023/08/28 03:42:40;;;;;;;96.43;92.53;;;;;;;13.53;100.00;100674.28;5051765;28;21234;-41
2023/08/28 03:45:09;;;;;;;90.90;86.93;;;;;;;13.51;100.00;100674.47;5052670;28;20808;-42
2023/08/28 03:47:36;;;;;;;90.73;87.40;;;;;;;13.50;100.00;100683.53;5053291;28;20435;-41
2023/08/28 03:50:05;;;;;;;90.83;87.33;;;;;;;13.51;100.00;100687.88;5052404;28;21071;-42
2023/08/28 03:52:33;;;;;;;88.83;85.53;;;;;;;13.54;100.00;100675.91;5051616;28;20490;-44
2023/08/28 03:55:01;;;;;;;83.57;80.40;;;;;;;13.54;100.00;100692.81;5052110;28;20462;-43
2023/08/28 03:57:29;;;;;;;87.07;83.67;;;;;;;13.53;100.00;100680.44;5052344;28;20529;-45
2023/08/28 03:59:57;;;;;;;88.40;84.80;;;;;;;13.52;100.00;100686.84;5052019;28;20442;-47
2023/08/28 04:02:25;;;;;;;88.80;85.47;;;;;;;13.52;100.00;100678.00;5043415;28;20517;-41
2023/08/28 04:04:54;;;;;;;87.30;83.90;;;;;;;13.49;100.00;100673.06;5052622;28;20436;-41
2023/08/28 04:07:34;;;;;;;90.90;87.47;;;;;;;13.46;100.00;100663.59;5045403;28;20439;-42
2023/08/28 04:10:02;;;;;;;89.00;85.80;;;;;;;13.44;100.00;100664.88;5052065;28;21048;-43
2023/08/28 04:12:33;;;;;;;91.13;87.63;;;;;;;13.43;100.00;100666.72;5051527;28;20475;-41
2023/08/28 04:15:00;;;;;;;91.33;88.13;;;;;;;13.44;100.00;100668.34;5052337;28;20431;-42
2023/08/28 04:17:28;;;;;;;88.67;85.47;;;;;;;13.44;100.00;100664.88;5044845;28;20442;-44
2023/08/28 04:19:56;;;;;;;90.30;87.00;;;;;;;13.44;100.00;100665.66;5052087;28;20442;-42
2023/08/28 04:22:24;;;;;;;88.33;85.30;;;;;;;13.45;100.00;100680.72;5048549;28;20452;-44
2023/08/28 04:24:52;;;;;;;92.23;89.10;;;;;;;13.47;100.00;100689.34;5051715;28;20433;-42
2023/08/28 04:27:20;;;;;;;95.27;91.97;;;;;;;13.49;100.00;100695.31;5040586;28;20594;-43
2023/08/28 04:29:49;;;;;;;94.13;90.80;;;;;;;13.51;100.00;100701.28;5046429;28;20423;-41
2023/08/28 04:32:20;;;;;;;94.30;90.40;;;;;;;13.55;100.00;100707.84;5051042;28;20455;-42
2023/08/28 04:34:48;;;;;;;98.40;94.80;;;;;;;13.59;100.00;100692.97;5051340;28;20515;-45
2023/08/28 04:37:15;;;;;;;92.73;89.43;;;;;;;13.64;100.00;100697.69;5043149;28;20452;-45
2023/08/28 04:39:43;;;;;;;92.80;89.80;;;;;;;13.66;100.00;100701.78;5043370;28;20479;-42
2023/08/28 04:42:11;;;;;;;92.03;88.70;;;;;;;13.70;100.00;100711.03;5042828;28;20436;-41
2023/08/28 04:44:39;;;;;;;95.33;92.13;;;;;;;13.74;100.00;100712.22;5051734;28;20435;-42
2023/08/28 04:47:08;;;;;;;92.83;89.87;;;;;;;13.76;100.00;100726.25;5044187;28;20467;-41
2023/08/28 04:49:36;;;;;;;93.30;90.00;;;;;;;13.80;100.00;100724.75;5051628;28;20463;-41
2023/08/28 04:52:04;;;;;;;91.70;88.57;;;;;;;13.85;100.00;100733.00;5051423;28;20431;-41
2023/08/28 04:54:32;;;;;;;91.33;88.30;;;;;;;13.92;100.00;100729.44;5052022;28;20431;-42
2023/08/28 04:57:00;;;;;;;93.93;90.63;;;;;;;13.99;100.00;100736.38;5043582;28;20526;-41
2023/08/28 04:59:29;;;;;;;94.43;91.53;;;;;;;14.03;100.00;100742.13;5043343;28;20471;-41
2023/08/28 05:01:57;;;;;;;86.60;83.67;;;;;;;14.11;100.00;100755.25;5051886;28;21317;-42
2023/08/28 05:04:26;;;;;;;87.33;84.63;;;;;;;14.16;100.00;100742.81;5051008;28;20519;-41
2023/08/28 05:06:53;;;;;;;93.53;90.37;;;;;;;14.33;100.00;100748.50;5051580;28;20431;-42
2023/08/28 05:09:21;;;;;;;72.40;69.90;;;;;;;15.09;100.00;100750.75;5051381;28;20481;-42
2023/08/28 05:11:49;;;;;;;55.40;53.70;;;;;;;15.81;100.00;100737.16;5051281;28;20459;-41
2023/08/28 05:14:16;;;;;;;49.23;47.53;;;;;;;16.66;100.00;100748.34;5042025;28;20491;-42
2023/08/28 05:16:44;;;;;;;44.20;42.70;;;;;;;17.41;100.00;100748.25;5051542;28;21071;-42
2023/08/28 05:19:12;;;;;;;42.40;40.90;;;;;;;18.05;100.00;100747.78;5042331;28;20515;-44
2023/08/28 05:21:41;;;;;;;34.10;33.00;;;;;;;18.89;100.00;100745.81;5046142;28;20432;-48
2023/08/28 05:24:09;;;;;;;32.70;31.40;;;;;;;19.60;100.00;100743.91;5048160;28;20974;-41
2023/08/28 05:26:36;;;;;;;32.00;30.80;;;;;;;20.09;100.00;100740.06;5051427;28;20867;-42
2023/08/28 05:29:04;;;;;;;30.63;29.63;;;;;;;20.58;100.00;100726.31;5050522;28;20849;-42
2023/08/28 05:31:32;;;;;;;28.90;27.80;;;;;;;21.02;100.00;100724.91;5042849;28;20441;-44
2023/08/28 05:34:00;;;;;;;28.77;27.77;;;;;;;21.54;100.00;100730.22;5049667;28;20463;-44
2023/08/28 05:36:28;;;;;;;25.70;24.57;;;;;;;21.95;100.00;100721.03;5050027;28;20930;-46
2023/08/28 05:38:57;;;;;;;23.40;22.60;;;;;;;22.46;100.00;100729.16;5050000;28;20463;-47
2023/08/28 05:41:24;;;;;;;24.10;23.20;;;;;;;22.63;100.00;100731.53;5041211;28;20442;-42
2023/08/28 05:43:52;;;;;;;20.87;20.07;;;;;;;23.15;100.00;100745.50;5044926;28;20464;-42
2023/08/28 05:46:19;;;;;;;19.07;18.37;;;;;;;23.59;100.00;100757.28;5052892;28;20517;-44
2023/08/28 05:48:47;;;;;;;20.33;19.40;;;;;;;23.97;100.00;100763.81;5053728;28;20430;-42
2023/08/28 05:51:15;;;;;;;19.63;19.03;;;;;;;24.46;100.00;100755.47;5052336;28;20439;-47
2023/08/28 05:53:42;;;;;;;18.60;18.00;;;;;;;24.42;100.00;100759.91;5046568;28;20462;-43
2023/08/28 05:56:12;;;;;;;17.80;17.10;;;;;;;24.79;100.00;100761.94;5053107;28;20440;-45
2023/08/28 05:58:40;;;;;;;17.40;16.70;;;;;;;25.22;100.00;100760.09;5053459;28;20470;-44
2023/08/28 06:01:09;;;;;;;17.27;16.50;;;;;;;25.55;100.00;100756.38;5053867;28;20522;-44
2023/08/28 06:03:37;;;;;;;15.13;14.53;;;;;;;26.09;100.00;100760.44;5044544;28;20489;-45
2023/08/28 06:06:04;;;;;;;13.23;12.60;;;;;;;26.35;96.58;100767.13;5053327;28;20426;-44
2023/08/28 06:08:32;;;;;;;9.40;8.93;;;;;;;26.26;90.54;100777.94;5053046;28;20473;-44
2023/08/28 06:11:00;;;;;;;7.97;7.70;;;;;;;26.36;94.02;100775.03;5045928;28;20532;-44
2023/08/28 06:13:29;;;;;;;7.23;6.93;;;;;;;26.68;92.44;100768.72;5052035;28;20481;-42
2023/08/28 06:15:56;;;;;;;6.73;6.20;;;;;;;26.97;79.82;100768.44;5045534;28;20431;-43
2023/08/28 06:18:24;;;;;;;6.60;6.30;;;;;;;26.99;88.33;100773.63;5053310;28;20538;-43
2023/08/28 06:20:52;;;;;;;6.00;5.60;;;;;;;27.13;78.80;100777.97;5053050;28;20430;-42
2023/08/28 06:23:20;;;;;;;5.43;5.07;;;;;;;27.26;76.21;100768.13;5045180;28;21195;-45
2023/08/28 06:25:48;;;;;;;5.70;5.50;;;;;;;27.26;81.60;100768.94;5052852;28;20470;-46
2023/08/28 06:28:16;;;;;;;5.83;5.43;;;;;;;27.19;72.94;100774.00;5044780;28;20787;-43
2023/08/28 06:30:45;;;;;;;5.20;5.00;;;;;;;27.20;80.26;100767.41;5044679;28;21023;-43
2023/08/28 06:33:13;;;;;;;5.33;5.13;;;;;;;27.16;75.79;100766.41;5052366;28;20528;-43
2023/08/28 06:35:41;;;;;;;5.57;5.27;;;;;;;27.16;67.71;100769.13;5052586;28;20514;-40
2023/08/28 06:38:08;;;;;;;4.83;4.63;;;;;;;26.97;69.04;100765.69;5052491;28;20473;-42
2023/08/28 06:40:36;;;;;;;5.20;4.80;;;;;;;25.78;73.03;100760.94;5052504;28;20295;-43
2023/08/28 06:43:04;;;;;;;5.37;4.90;;;;;;;25.76;81.57;100760.44;5044110;28;20303;-43
2023/08/28 06:45:32;;;;;;;5.90;5.43;;;;;;;25.64;87.93;100749.16;5044357;28;20950;-40
2023/08/28 06:48:02;;;;;;;5.53;5.23;;;;;;;25.14;86.82;100741.66;5045795;28;20514;-41
2023/08/28 06:50:30;;;;;;;5.57;5.27;;;;;;;24.73;91.99;100733.91;5052002;28;20931;-42
2023/08/28 06:52:57;;;;;;;5.57;5.33;;;;;;;24.81;89.37;100726.25;5051726;28;20489;-45
2023/08/28 06:55:26;;;;;;;4.87;4.60;;;;;;;24.09;96.34;100717.94;5043917;28;20197;-45
2023/08/28 06:57:54;;;;;;;5.67;5.37;;;;;;;23.85;100.00;100713.50;5052187;28;20530;-43
2023/08/28 07:00:21;;;;;;;5.40;5.00;;;;;;;22.87;100.00;100716.25;5052068;28;21227;-43
2023/08/28 07:02:53;;;;;;;5.20;5.00;;;;;;;22.94;100.00;100716.75;5051781;28;20458;-46
2023/08/28 07:05:22;;;;;;;6.10;5.80;;;;;;;22.54;100.00;100717.72;5052453;28;20434;-46
2023/08/28 07:07:49;;;;;;;6.40;6.20;;;;;;;22.65;100.00;100721.22;5052192;28;20431;-46
2023/08/28 07:10:17;;;;;;;5.87;5.57;;;;;;;22.40;100.00;100719.38;5051152;28;20798;-44
2023/08/28 07:12:45;;;;;;;7.10;6.70;;;;;;;22.18;100.00;100724.28;5039706;28;20897;-39
2023/08/28 07:15:49;;;;;;;7.33;6.93;;;;;;;22.11;100.00;100721.84;5049008;28;20454;-42
2023/08/28 07:18:17;;;;;;;7.67;6.90;;;;;;;21.90;100.00;100715.63;5044037;28;20471;-41
2023/08/28 07:20:46;;;;;;;6.97;6.73;;;;;;;21.77;100.00;100718.03;5051608;28;20504;-43
2023/08/28 07:23:14;;;;;;;8.17;7.87;;;;;;;21.40;100.00;100713.66;5058227;28;20897;-41
2023/08/28 07:25:44;;;;;;;7.03;6.73;;;;;;;21.41;100.00;100719.88;5051564;28;20437;-44
2023/08/28 07:28:12;;;;;;;7.80;7.30;;;;;;;21.27;100.00;100727.72;5051783;28;21055;-46
2023/08/28 07:30:41;;;;;;;7.47;7.17;;;;;;;20.92;100.00;100732.97;5051919;28;20433;-41
2023/08/28 07:33:09;;;;;;;7.77;7.57;;;;;;;20.73;100.00;100743.47;5051389;28;20960;-45
2023/08/28 07:35:37;;;;;;;8.27;7.97;;;;;;;20.12;100.00;100742.25;5043609;28;20883;-43
2023/08/28 07:38:07;;;;;;;8.13;7.50;;;;;;;19.67;100.00;100761.59;5043118;28;20902;-41
2023/08/28 07:40:35;;;;;;;9.00;8.70;;;;;;;19.84;100.00;100758.78;5043053;28;20470;-43
2023/08/28 07:43:04;;;;;;;9.10;8.70;;;;;;;19.97;100.00;100769.19;5050761;28;20974;-41
2023/08/28 07:45:32;;;;;;;8.30;8.00;;;;;;;20.12;100.00;100769.31;5051626;28;20488;-41
2023/08/28 07:48:00;;;;;;;8.53;8.20;;;;;;;20.26;100.00;100765.13;5051653;28;20462;-43
2023/08/28 07:50:30;;;;;;;8.03;7.70;;;;;;;20.05;100.00;100768.69;5051267;28;20434;-45
2023/08/28 07:52:57;;;;;;;8.37;7.77;;;;;;;19.79;100.00;100775.78;5050645;28;21118;-39
2023/08/28 07:55:27;;;;;;;8.40;8.10;;;;;;;20.03;100.00;100787.09;5049625;28;20430;-45
2023/08/28 07:57:55;;;;;;;8.03;7.63;;;;;;;19.95;100.00;100784.06;5045667;28;20520;-45
2023/08/28 08:00:23;;;;;;;7.07;6.80;;;;;;;19.80;100.00;100787.44;5051201;28;20478;-47
2023/08/28 08:02:52;;;;;;;6.90;6.70;;;;;;;19.81;100.00;100789.88;5050902;28;20986;-41
2023/08/28 08:05:20;;;;;;;7.60;7.30;;;;;;;19.87;100.00;100799.66;5049498;28;20855;-42
2023/08/28 08:07:49;;;;;;;8.27;7.87;;;;;;;19.87;100.00;100798.84;5044067;28;20434;-43
2023/08/28 08:10:16;;;;;;;7.33;6.90;;;;;;;19.92;100.00;100793.50;5042513;28;20943;-41
2023/08/28 08:12:45;;;;;;;7.33;7.03;;;;;;;19.67;100.00;100796.78;5049953;28;20998;-42
2023/08/28 08:15:13;;;;;;;7.23;6.93;;;;;;;19.65;100.00;100804.31;5042561;28;20431;-42
2023/08/28 08:17:41;;;;;;;7.23;6.90;;;;;;;19.51;100.00;100813.91;5051144;28;20470;-41
2023/08/28 08:20:12;;;;;;;7.63;7.23;;;;;;;19.54;100.00;100821.50;5050898;28;20540;-41
2023/08/28 08:22:43;;;;;;;8.27;7.97;;;;;;;19.74;100.00;100826.34;5041960;28;20470;-42
2023/08/28 08:25:11;;;;;;;7.60;7.27;;;;;;;19.85;100.00;100834.31;5050711;28;20438;-41
2023/08/28 08:27:39;;;;;;;6.97;6.67;;;;;;;20.07;100.00;100844.25;5050532;28;20799;-43
2023/08/28 08:30:09;;;;;;;6.90;6.60;;;;;;;20.07;100.00;100852.38;5050486;28;20654;-44
2023/08/28 08:32:37;;;;;;;7.37;7.03;;;;;;;20.08;100.00;100843.16;5047292;28;20874;-46
2023/08/28 08:35:06;;;;;;;6.67;6.40;;;;;;;20.17;100.00;100857.88;5046087;28;20484;-41
2023/08/28 08:37:34;;;;;;;6.90;6.60;;;;;;;19.91;100.00;100859.53;5042323;28;20481;-41
2023/08/28 08:40:03;;;;;;;7.53;6.93;;;;;;;20.04;100.00;100858.31;5043969;28;20481;-42
2023/08/28 08:42:31;;;;;;;7.30;6.80;;;;;;;19.75;100.00;100873.94;5048467;28;20896;-44
2023/08/28 08:44:58;;;;;;;6.67;6.20;;;;;;;19.91;100.00;100881.19;5050734;28;20522;-41
2023/08/28 08:47:28;;;;;;;6.47;6.23;;;;;;;19.85;100.00;100890.31;5050852;28;20945;-41
2023/08/28 08:50:00;;;;;;;6.33;6.13;;;;;;;20.14;100.00;100885.47;5050314;28;20431;-42
2023/08/28 08:52:28;;;;;;;6.30;5.93;;;;;;;20.07;100.00;100876.75;5049269;28;20463;-41
2023/08/28 08:55:02;;;;;;;6.83;6.53;;;;;;;20.05;100.00;100878.88;5050177;28;20470;-41
2023/08/28 08:57:37;;;;;;;6.97;6.57;;;;;;;19.89;100.00;100886.03;5041897;28;20527;-41
2023/08/28 09:00:11;;;;;;;6.40;6.10;;;;;;;19.53;100.00;100875.88;5043202;28;20438;-43
2023/08/28 09:02:42;;;;;;;6.10;5.80;;;;;;;19.56;100.00;100889.69;5041327;28;20556;-42
2023/08/28 09:05:10;;;;;;;5.80;5.50;;;;;;;19.83;100.00;100885.13;5041924;28;20441;-42
2023/08/28 09:07:38;;;;;;;5.90;5.60;;;;;;;20.27;100.00;100883.19;5049799;28;20517;-42
2023/08/28 09:10:07;;;;;;;5.23;5.03;;;;;;;20.88;100.00;100876.34;5049997;28;20841;-41
2023/08/28 09:12:35;;;;;;;5.87;5.67;;;;;;;20.57;100.00;100874.53;5041131;28;20458;-42
2023/08/28 09:15:04;;;;;;;6.17;5.97;;;;;;;20.31;100.00;100878.88;5049815;28;21000;-41
2023/08/28 09:17:31;;;;;;;6.20;5.87;;;;;;;20.46;100.00;100872.00;5042343;28;20926;-41
2023/08/28 09:20:13;;;;;;;5.70;5.50;;;;;;;20.42;100.00;100866.28;5049811;28;20427;-45
2023/08/28 09:22:46;;;;;;;5.70;5.40;;;;;;;20.55;100.00;100859.59;5040808;28;20896;-42
2023/08/28 09:25:22;;;;;;;5.93;5.67;;;;;;;20.44;100.00;100861.41;5049850;28;20430;-42
2023/08/28 09:27:52;;;;;;;5.07;4.97;;;;;;;20.34;100.00;100855.88;5049992;28;20501;-42
2023/08/28 09:30:28;;;;;;;5.30;5.20;;;;;;;20.50;100.00;100865.78;5041324;28;20993;-42
2023/08/28 09:32:58;;;;;;;6.23;6.00;;;;;;;20.65;100.00;100867.78;5041262;28;20860;-45
2023/08/28 09:35:28;;;;;;;4.90;4.70;;;;;;;20.60;100.00;100855.03;5048074;28;20942;-42
2023/08/28 09:37:57;;;;;;;5.77;5.57;;;;;;;20.56;100.00;100862.03;5043253;28;20431;-41
2023/08/28 09:40:30;;;;;;;4.70;4.50;;;;;;;20.45;100.00;100868.47;5049501;28;20518;-41
2023/08/28 09:42:58;;;;;;;5.30;5.10;;;;;;;20.60;100.00;100865.88;5048589;28;20995;-41
2023/08/28 09:45:30;;;;;;;5.73;5.43;;;;;;;20.53;100.00;100870.69;5041354;28;20489;-42
2023/08/28 09:47:59;;;;;;;5.57;5.10;;;;;;;20.66;100.00;100869.44;5041593;28;20544;-45
2023/08/28 09:50:31;;;;;;;5.67;5.27;;;;;;;20.52;100.00;100868.25;5047922;28;20434;-43
2023/08/28 09:53:06;;;;;;;4.90;4.80;;;;;;;20.16;100.00;100889.53;5042644;28;20465;-41
2023/08/28 09:55:37;;;;;;;5.60;5.33;;;;;;;20.33;100.00;100884.88;5049137;28;20492;-44
2023/08/28 09:58:08;;;;;;;5.30;5.00;;;;;;;19.91;100.00;100889.31;5049321;28;20521;-45
2023/08/28 10:00:39;;;;;;;4.93;4.73;;;;;;;19.81;100.00;100903.53;5046985;28;20492;-44
2023/08/28 10:03:08;;;;;;;5.20;4.90;;;;;;;19.61;100.00;100902.47;5043910;28;20808;-41
2023/08/28 10:05:39;;;;;;;5.33;5.03;;;;;;;19.70;100.00;100906.38;5049180;28;20960;-46
2023/08/28 10:08:09;;;;;;;4.90;4.73;;;;;;;19.70;100.00;100911.78;5042476;28;20424;-43
2023/08/28 10:10:39;;;;;;;5.07;4.87;;;;;;;20.31;100.00;100907.84;5048416;28;20518;-42
2023/08/28 10:13:10;;;;;;;4.60;4.40;;;;;;;20.33;100.00;100905.72;5048729;28;20490;-42
2023/08/28 10:15:41;;;;;;;4.80;4.50;;;;;;;20.45;100.00;100916.41;5041576;28;20459;-42
2023/08/28 10:18:18;;;;;;;4.37;4.17;;;;;;;20.70;100.00;100922.03;5049592;28;20517;-43
2023/08/28 10:20:48;;;;;;;4.50;4.30;;;;;;;20.69;100.00;100914.97;5048910;28;20506;-42
2023/08/28 10:23:17;;;;;;;4.50;4.30;;;;;;;21.19;100.00;100920.78;5040633;28;20488;-41
2023/08/28 10:25:47;;;;;;;4.47;4.13;;;;;;;21.34;100.00;100910.03;5041009;28;20447;-43
2023/08/28 10:28:16;;;;;;;4.17;3.97;;;;;;;21.60;100.00;100915.56;5049103;28;20457;-46
2023/08/28 10:30:45;;;;;;;5.10;3.50;;;;;;;21.94;100.00;100914.09;5044028;28;20454;-41
2023/08/28 10:33:15;;;;;;;4.10;4.00;;;;;;;21.66;100.00;100919.94;5052270;28;20458;-42
2023/08/28 10:35:44;;;;;;;3.53;3.43;;;;;;;21.14;100.00;100919.94;5049569;28;20444;-43
2023/08/28 10:38:14;;;;;;;4.00;3.70;;;;;;;21.14;100.00;100919.94;5048053;28;20438;-41
2023/08/28 10:40:42;;;;;;;3.63;3.50;;;;;;;21.41;100.00;100924.16;5052412;28;20488;-45
2023/08/28 10:43:12;;;;;;;3.37;3.17;;;;;;;21.41;95.60;100923.38;5043497;28;20895;-42
2023/08/28 10:45:41;;;;;;;2.97;2.77;;;;;;;21.35;93.83;100932.56;5052373;28;20431;-41
2023/08/28 10:48:09;;;;;;;3.83;3.53;;;;;;;21.32;95.29;100933.91;5052826;28;20437;-41
2023/08/28 10:50:37;;;;;;;3.33;3.13;;;;;;;21.31;99.84;100945.00;5050127;28;20441;-43
2023/08/28 10:53:06;;;;;;;3.50;3.30;;;;;;;21.29;99.95;100941.75;5039863;28;20995;-42
2023/08/28 10:55:36;;;;;;;3.33;3.23;;;;;;;21.57;100.00;100940.50;5050624;28;20462;-46
2023/08/28 10:58:04;;;;;;;3.80;3.50;;;;;;;21.60;98.62;100937.28;5052424;28;20927;-46
2023/08/28 11:00:35;;;;;;;3.43;3.23;;;;;;;21.60;100.00;100945.41;5043010;28;20538;-46
2023/08/28 11:03:05;;;;;;;3.17;2.97;;;;;;;21.68;99.40;100948.47;5045837;28;20469;-41
2023/08/28 11:05:34;;;;;;;3.40;3.30;;;;;;;21.65;92.74;100948.19;5043849;28;20431;-41
2023/08/28 11:08:04;;;;;;;3.40;3.20;;;;;;;21.34;98.52;100945.28;5052235;28;20542;-42
2023/08/28 11:10:32;;;;;;;3.10;3.00;;;;;;;21.30;93.78;100944.19;5043661;28;20437;-43
2023/08/28 11:13:05;;;;;;;3.50;3.27;;;;;;;21.11;100.00;100955.72;5042933;28;21021;-41
2023/08/28 11:15:34;;;;;;;3.17;2.97;;;;;;;21.13;100.00;100950.84;5052470;28;20469;-41
2023/08/28 11:18:20;;;;;;;4.43;3.90;;;;;;;21.43;100.00;100953.75;5052493;28;20449;-44